Time;durP1;ratioP1;P1;durP2;ratioP2;P2;SDS_P1;SDS_P2;PMS_P1;PMS_P2;Temp;Humidity;BMP_temperature;BMP_pressure;BME280_temperature;BME280_humidity;BME280_pressure;Samples;Min_cycle;Max_cycle;Signal;HPM_P1;HPM_P2
2023/06/28 00:00:24;;;;;;;2.63;1.40;;;;;;;19.10;50.27;96934.50;10404445;28;20401;-29
2023/06/28 00:05:25;;;;;;;5.38;1.90;;;;;;;19.02;50.50;96920.97;10401240;28;20048;-30
2023/06/28 00:10:25;;;;;;;4.82;2.20;;;;;;;18.93;50.90;96921.78;10389934;28;20048;-30
2023/06/28 00:15:25;;;;;;;3.07;1.80;;;;;;;18.95;50.97;96924.34;10372141;28;20100;-31
2023/06/28 00:20:26;;;;;;;3.20;1.90;;;;;;;18.95;50.92;96926.88;10365464;28;20486;-30
2023/06/28 00:25:26;;;;;;;3.60;1.87;;;;;;;18.89;51.11;96930.25;10382378;28;20021;-30
2023/06/28 00:30:27;;;;;;;5.45;1.92;;;;;;;18.83;51.19;96937.00;10379566;28;20551;-30
2023/06/28 00:35:27;;;;;;;3.80;1.95;;;;;;;18.76;51.69;96937.84;10367052;28;20120;-30
2023/06/28 00:40:27;;;;;;;3.40;1.80;;;;;;;18.81;51.50;96929.38;10369626;28;20049;-29
2023/06/28 00:45:30;;;;;;;6.63;1.93;;;;;;;18.80;51.40;96929.38;10344317;28;20046;-30
2023/06/28 00:50:31;;;;;;;2.88;1.73;;;;;;;18.70;51.67;96920.91;10358130;28;20026;-30
2023/06/28 00:55:32;;;;;;;3.13;1.67;;;;;;;18.77;51.52;96926.84;10367049;28;20030;-30
2023/06/28 01:00:32;;;;;;;3.33;1.58;;;;;;;18.73;51.30;96917.50;10369345;28;20529;-30
2023/06/28 01:05:32;;;;;;;3.27;1.60;;;;;;;18.76;51.37;96923.44;10376090;28;20073;-30
2023/06/28 01:10:33;;;;;;;4.37;2.17;;;;;;;18.78;51.42;96919.25;10377283;28;20030;-30
2023/06/28 01:15:33;;;;;;;4.10;1.67;;;;;;;18.69;52.05;96918.38;10359981;28;20030;-30
2023/06/28 01:20:34;;;;;;;3.25;1.45;;;;;;;18.54;52.20;96920.84;10367212;28;20942;-30
2023/06/28 01:25:34;;;;;;;4.60;1.80;;;;;;;18.61;52.19;96925.09;10365834;28;20029;-29
2023/06/28 01:30:37;;;;;;;3.00;1.73;;;;;;;18.64;52.04;96937.78;10368572;28;20697;-30
2023/06/28 01:35:37;;;;;;;6.95;2.40;;;;;;;18.61;52.39;96925.09;10366900;28;20034;-30
2023/06/28 01:40:38;;;;;;;4.13;2.03;;;;;;;18.59;52.23;96931.88;10355845;28;20485;-30
2023/06/28 01:45:38;;;;;;;2.67;1.80;;;;;;;18.61;52.16;96923.44;10367712;28;20037;-30
2023/06/28 01:50:39;;;;;;;4.43;1.93;;;;;;;18.65;51.96;96914.13;10378790;28;20026;-29
2023/06/28 01:55:39;;;;;;;4.80;2.00;;;;;;;18.58;52.03;96920.88;10371455;28;20048;-30
2023/06/28 02:00:40;;;;;;;4.13;1.60;;;;;;;18.57;51.89;96908.22;10349735;28;20284;-29
2023/06/28 02:05:40;;;;;;;5.43;1.83;;;;;;;18.65;51.57;96911.56;10382600;28;20292;-30
2023/06/28 02:10:40;;;;;;;3.80;1.92;;;;;;;18.61;51.92;96910.75;10375503;28;20045;-30
2023/06/28 02:15:41;;;;;;;5.63;1.67;;;;;;;18.56;52.01;96907.34;10364061;28;20037;-30
2023/06/28 02:20:43;;;;;;;2.90;1.92;;;;;;;18.53;51.76;96903.97;10386708;28;20029;-32
2023/06/28 02:25:43;;;;;;;2.72;1.65;;;;;;;18.59;51.88;96904.81;10372592;28;20030;-30
2023/06/28 02:30:44;;;;;;;4.20;1.80;;;;;;;18.61;51.81;96902.28;10372947;28;20034;-30
2023/06/28 02:35:44;;;;;;;4.40;1.90;;;;;;;18.59;51.63;96893.84;10363877;28;20033;-30
2023/06/28 02:40:45;;;;;;;4.25;1.95;;;;;;;18.52;52.03;96894.66;10390978;28;20115;-30
2023/06/28 02:45:45;;;;;;;2.83;1.60;;;;;;;18.52;52.03;96905.66;10374214;28;20099;-29
2023/06/28 02:50:46;;;;;;;4.60;2.13;;;;;;;18.49;51.94;96900.56;10382811;28;20026;-30
2023/06/28 02:55:49;;;;;;;4.47;1.40;;;;;;;18.57;52.13;96888.75;10353380;28;20060;-29
2023/06/28 03:00:53;;;;;;;3.78;1.83;;;;;;;18.56;52.13;96876.06;10357156;28;20030;-30
2023/06/28 03:05:54;;;;;;;3.03;1.90;;;;;;;18.52;52.46;96875.25;10356204;28;20510;-29
2023/06/28 03:10:54;;;;;;;5.05;2.10;;;;;;;18.53;52.46;96865.94;10390000;28;20030;-30
2023/06/28 03:15:55;;;;;;;2.43;1.70;;;;;;;18.56;52.34;96869.31;10370748;28;20025;-31
2023/06/28 03:20:55;;;;;;;3.80;1.85;;;;;;;18.64;52.15;96864.25;10379931;28;20861;-29
2023/06/28 03:25:55;;;;;;;4.87;2.07;;;;;;;18.62;52.03;96855.78;10372322;28;20087;-30
2023/06/28 03:30:56;;;;;;;6.32;1.70;;;;;;;18.64;51.99;96847.34;10380268;28;20061;-31
2023/06/28 03:35:57;;;;;;;4.32;2.00;;;;;;;18.66;51.80;96845.66;10387522;28;20048;-30
2023/06/28 03:40:57;;;;;;;3.97;1.47;;;;;;;18.58;51.94;96842.25;10379255;28;20034;-29
2023/06/28 03:45:57;;;;;;;3.17;1.30;;;;;;;18.60;51.92;96847.34;10372595;28;20037;-30
2023/06/28 03:50:58;;;;;;;4.93;1.83;;;;;;;18.56;52.63;96846.50;10384104;28;20033;-29
2023/06/28 03:55:58;;;;;;;4.88;2.30;;;;;;;18.64;52.60;96854.09;10373763;28;20048;-30
2023/06/28 04:01:02;;;;;;;2.92;1.88;;;;;;;18.61;53.00;96854.97;10368114;28;20033;-30
2023/06/28 04:06:02;;;;;;;3.95;2.22;;;;;;;18.66;52.73;96847.38;10397651;28;20040;-30
2023/06/28 04:11:02;;;;;;;6.50;2.22;;;;;;;18.68;52.85;96850.75;10371640;28;20041;-29
2023/06/28 04:16:03;;;;;;;3.27;2.10;;;;;;;18.62;52.93;96841.44;10370882;28;20042;-29
2023/06/28 04:21:03;;;;;;;7.63;2.05;;;;;;;18.59;53.09;96838.06;10403189;28;20060;-30
2023/06/28 04:26:04;;;;;;;3.10;2.10;;;;;;;18.58;53.16;96828.75;10390228;28;20042;-30
2023/06/28 04:31:04;;;;;;;3.30;1.60;;;;;;;18.67;53.01;96828.75;10386518;28;20280;-29
2023/06/28 04:36:05;;;;;;;5.57;2.07;;;;;;;18.69;52.99;96822.84;10385633;28;20030;-30
2023/06/28 04:41:05;;;;;;;5.53;1.85;;;;;;;18.70;52.82;96828.75;10393274;28;20072;-30
2023/06/28 04:46:08;;;;;;;12.20;2.50;;;;;;;18.61;53.50;96833.81;10383045;28;20033;-30
2023/06/28 04:51:11;;;;;;;5.53;3.08;;;;;;;18.59;53.76;96830.44;10354522;28;20037;-29
2023/06/28 04:56:11;;;;;;;3.80;2.20;;;;;;;18.89;53.06;96836.38;10337171;28;20038;-30
2023/06/28 05:01:11;;;;;;;7.75;2.45;;;;;;;19.38;52.17;96842.28;10346643;28;20041;-31
2023/06/28 05:06:13;;;;;;;9.63;2.33;;;;;;;19.69;51.83;96843.94;10360289;28;20426;-30
2023/06/28 05:11:13;;;;;;;8.40;1.98;;;;;;;19.91;51.59;96848.09;10346364;28;20046;-30
2023/06/28 05:16:13;;;;;;;4.40;1.87;;;;;;;19.88;51.32;96846.41;10367325;28;20029;-29
2023/06/28 05:21:14;;;;;;;7.83;1.97;;;;;;;19.89;51.61;96853.19;10361396;28;20037;-29
2023/06/28 05:26:14;;;;;;;4.60;1.70;;;;;;;19.90;51.60;96854.00;10344204;28;20293;-30
2023/06/28 05:31:14;;;;;;;3.43;2.00;;;;;;;19.93;51.55;96857.38;10351647;28;20042;-29
2023/06/28 05:36:15;;;;;;;6.00;2.33;;;;;;;19.95;51.71;96843.00;10369662;28;20140;-30
2023/06/28 05:41:17;;;;;;;4.53;1.65;;;;;;;19.93;51.78;96847.22;10380094;28;20036;-30
2023/06/28 05:46:17;;;;;;;4.55;2.45;;;;;;;19.95;51.95;96852.31;10386644;28;20409;-30
2023/06/28 05:51:17;;;;;;;5.13;1.80;;;;;;;19.96;51.85;96854.84;10363616;28;20040;-30
2023/06/28 05:56:18;;;;;;;2.73;1.70;;;;;;;20.13;51.57;96852.25;10351204;28;20498;-30
2023/06/28 06:01:18;;;;;;;3.70;1.90;;;;;;;20.34;51.47;96853.00;10356705;28;20038;-30
2023/06/28 06:06:19;;;;;;;6.95;1.90;;;;;;;20.42;51.42;96847.03;10365280;28;20046;-30
2023/06/28 06:11:19;;;;;;;2.67;1.65;;;;;;;20.32;51.46;96836.06;10368614;28;20039;-30
2023/06/28 06:16:20;;;;;;;3.30;1.80;;;;;;;20.33;51.28;96845.41;10360812;28;20037;-30
2023/06/28 06:21:20;;;;;;;3.78;1.80;;;;;;;20.33;51.47;96845.41;10380728;28;20298;-30
2023/06/28 06:26:21;;;;;;;5.10;1.92;;;;;;;20.33;51.58;96850.50;10367426;28;20051;-30
2023/06/28 06:31:22;;;;;;;2.80;1.67;;;;;;;20.35;51.43;96853.84;10389024;28;20080;-30
2023/06/28 06:36:22;;;;;;;1.90;1.50;;;;;;;20.36;51.53;96858.09;10339518;28;20065;-29
2023/06/28 06:41:23;;;;;;;2.87;1.43;;;;;;;20.37;51.54;96867.41;10358812;28;20042;-31
2023/06/28 06:46:23;;;;;;;3.15;1.40;;;;;;;20.38;51.45;96874.19;10369412;28;20040;-30
2023/06/28 06:51:23;;;;;;;2.23;1.57;;;;;;;20.49;51.56;96878.34;10377919;28;20474;-30
2023/06/28 06:56:25;;;;;;;3.00;1.43;;;;;;;20.63;51.75;96881.69;10382912;28;20034;-30
2023/06/28 07:01:25;;;;;;;4.20;1.90;;;;;;;20.60;51.68;96872.34;10365956;28;20042;-30
2023/06/28 07:06:26;;;;;;;3.70;1.70;;;;;;;20.52;51.73;96876.66;10398919;28;20037;-30
2023/06/28 07:11:26;;;;;;;3.28;1.40;;;;;;;20.46;51.81;96884.31;10372620;28;20022;-30
2023/06/28 07:16:26;;;;;;;3.13;1.77;;;;;;;20.45;51.63;96877.53;10370871;28;20034;-31
2023/06/28 07:21:27;;;;;;;2.20;1.73;;;;;;;20.45;51.80;96886.88;10384916;28;20100;-30
2023/06/28 07:26:27;;;;;;;2.38;1.65;;;;;;;20.45;52.01;96897.03;10378649;28;20515;-30
2023/06/28 07:31:27;;;;;;;2.37;1.40;;;;;;;20.45;51.96;96892.78;10387217;28;20056;-30
2023/06/28 07:36:28;;;;;;;2.27;1.33;;;;;;;20.45;52.02;96897.03;10369777;28;20327;-30
2023/06/28 07:41:28;;;;;;;2.17;1.47;;;;;;;20.46;51.75;96897.00;10371768;28;20036;-30
2023/06/28 07:46:29;;;;;;;5.90;1.80;;;;;;;20.61;51.96;96894.41;10366740;28;20045;-30
2023/06/28 07:51:29;;;;;;;2.03;1.70;;;;;;;20.72;51.88;96891.81;10362876;28;20665;-30
2023/06/28 07:56:29;;;;;;;2.53;1.27;;;;;;;20.66;52.16;96882.50;10367460;28;20409;-30
2023/06/28 08:01:32;;;;;;;3.43;1.43;;;;;;;20.58;51.92;96893.56;10351221;28;20468;-29
2023/06/28 08:06:32;;;;;;;1.65;1.20;;;;;;;20.53;52.10;96888.50;10363314;28;20075;-30
2023/06/28 08:11:33;;;;;;;2.17;1.50;;;;;;;20.52;52.02;96886.81;10382668;28;20034;-30
2023/06/28 08:16:34;;;;;;;2.55;1.60;;;;;;;20.51;52.15;96882.59;10386125;28;20301;-30
2023/06/28 08:21:36;;;;;;;2.33;1.65;;;;;;;20.49;52.25;96879.22;10363172;28;20029;-30
2023/06/28 08:26:36;;;;;;;2.15;1.15;;;;;;;20.50;52.29;96891.06;10360831;28;20482;-30
2023/06/28 08:31:37;;;;;;;2.23;1.53;;;;;;;20.51;52.13;96890.22;10375145;28;20031;-31
2023/06/28 08:36:37;;;;;;;1.70;1.10;;;;;;;20.59;52.57;96895.25;10352792;28;20033;-30
2023/06/28 08:41:40;;;;;;;2.47;1.37;;;;;;;20.74;52.36;96885.84;10374763;28;20038;-30
2023/06/28 08:46:44;;;;;;;2.10;1.23;;;;;;;20.82;52.18;96894.25;10365369;28;20088;-31
2023/06/28 08:51:45;;;;;;;1.95;1.20;;;;;;;20.71;52.16;96890.94;10366908;28;20029;-30
2023/06/28 08:56:47;;;;;;;2.50;1.52;;;;;;;20.63;52.36;96894.41;10364079;28;20416;-30
2023/06/28 09:01:55;;;;;;;2.58;1.20;;;;;;;20.59;52.51;96891.03;10348328;28;20035;-30
2023/06/28 09:06:56;;;;;;;1.17;1.08;;;;;;;20.56;52.38;96880.03;10359583;28;20041;-30
2023/06/28 09:11:58;;;;;;;1.58;1.10;;;;;;;20.56;52.54;96875.75;10364880;28;20080;-30
2023/06/28 09:16:59;;;;;;;1.83;1.25;;;;;;;20.55;52.66;96868.16;10377420;28;20065;-30
2023/06/28 09:22:03;;;;;;;1.93;1.17;;;;;;;20.52;52.48;96863.94;10340141;28;20125;-30
2023/06/28 09:27:05;;;;;;;2.75;1.50;;;;;;;20.56;52.71;96865.59;10359452;28;20478;-30
2023/06/28 09:32:06;;;;;;;1.55;1.00;;;;;;;20.73;52.68;96866.31;10351773;28;20038;-30
2023/06/28 09:37:07;;;;;;;1.95;1.35;;;;;;;20.86;52.38;96857.78;10367004;28;20042;-30
2023/06/28 09:42:07;;;;;;;1.27;1.00;;;;;;;20.83;52.40;96860.34;10360140;28;20053;-30
2023/06/28 09:47:08;;;;;;;1.50;1.10;;;;;;;20.72;52.36;96859.56;10367270;28;20034;-30
2023/06/28 09:52:08;;;;;;;1.63;1.10;;;;;;;20.65;52.83;96850.25;10359679;28;20035;-30
2023/06/28 09:57:09;;;;;;;1.50;1.17;;;;;;;20.63;52.62;96841.81;10359666;28;20292;-31
2023/06/28 10:02:09;;;;;;;1.30;1.20;;;;;;;20.62;52.80;96845.19;10373770;28;20285;-30
2023/06/28 10:07:12;;;;;;;1.90;1.30;;;;;;;20.59;52.72;96842.69;10359107;28;20490;-30
2023/06/28 10:12:18;;;;;;;1.30;0.90;;;;;;;20.60;52.96;96846.06;10352325;28;20496;-30
2023/06/28 10:17:19;;;;;;;1.50;1.40;;;;;;;20.59;52.95;96836.75;10380697;28;20034;-30
2023/06/28 10:22:20;;;;;;;2.60;1.05;;;;;;;20.71;52.85;96839.22;10382784;28;20498;-30
2023/06/28 10:27:22;;;;;;;1.52;1.13;;;;;;;20.89;52.62;96837.41;10391678;28;20072;-30
2023/06/28 10:32:23;;;;;;;1.90;1.15;;;;;;;20.93;52.68;96836.53;10376031;28;20076;-32
2023/06/28 10:37:24;;;;;;;1.42;1.33;;;;;;;20.84;52.50;96846.75;10349195;28;20031;-30
2023/06/28 10:42:25;;;;;;;1.25;0.90;;;;;;;20.75;52.54;96851.06;10343867;28;20568;-30
2023/06/28 10:47:25;;;;;;;6.63;1.83;;;;;;;20.67;52.95;96848.56;10348793;28;20045;-30
2023/06/28 10:52:27;;;;;;;2.47;1.65;;;;;;;20.69;52.95;96840.91;10342285;28;20293;-30
2023/06/28 10:57:37;;;;;;;4.00;1.58;;;;;;;20.68;52.96;96841.78;10333749;28;20043;-30
2023/06/28 11:02:59;;;;;;;2.97;1.45;;;;;;;20.66;52.68;96851.13;10336952;28;20115;-30
2023/06/28 11:08:09;;;;;;;2.30;1.20;;;;;;;20.64;52.88;96828.22;10341653;28;20037;-29
2023/06/28 11:13:33;;;;;;;1.88;1.40;;;;;;;20.65;52.84;96827.38;10340791;28;20061;-30
2023/06/28 11:18:33;;;;;;;19.38;3.47;;;;;;;20.92;53.28;96811.09;10332868;28;20497;-30
2023/06/28 11:23:39;;;;;;;15.55;3.38;;;;;;;21.01;52.91;96799.16;10340523;28;20034;-29
2023/06/28 11:28:48;;;;;;;21.33;3.03;;;;;;;20.92;52.96;96806.00;10331927;28;20030;-30
2023/06/28 11:33:50;;;;;;;9.77;2.70;;;;;;;20.83;52.84;96803.50;10340536;28;20034;-30
2023/06/28 11:38:51;;;;;;;13.63;3.22;;;;;;;20.74;53.04;96817.16;10340223;28;20034;-29
2023/06/28 11:44:01;;;;;;;18.50;3.67;;;;;;;20.71;53.10;96817.16;10332061;28;20084;-31
2023/06/28 11:49:02;;;;;;;12.75;3.33;;;;;;;20.67;53.11;96807.88;10339693;28;20038;-29
2023/06/28 11:54:05;;;;;;;12.90;3.00;;;;;;;20.71;53.18;96809.53;10337950;28;20387;-35
2023/06/28 11:59:17;;;;;;;8.85;2.88;;;;;;;20.71;52.95;96814.63;10349161;28;20169;-30
2023/06/28 12:04:19;;;;;;;6.75;2.78;;;;;;;20.73;53.41;96807.81;10339576;28;20069;-33
2023/06/28 12:09:27;;;;;;;12.95;2.97;;;;;;;20.89;53.08;96809.41;10370182;28;20045;-29
2023/06/28 12:14:31;;;;;;;7.78;2.45;;;;;;;21.03;52.66;96811.84;10347465;28;20037;-30
2023/06/28 12:19:35;;;;;;;7.43;2.25;;;;;;;20.99;52.72;96800.84;10345287;28;20362;-30
2023/06/28 12:24:37;;;;;;;9.43;2.45;;;;;;;20.88;52.83;96799.25;10347669;28;20076;-30
2023/06/28 12:29:38;;;;;;;7.80;2.67;;;;;;;20.81;52.84;96795.88;10350028;28;20030;-29
2023/06/28 12:34:38;;;;;;;7.63;2.25;;;;;;;20.79;53.23;96792.50;10327748;28;20041;-30
2023/06/28 12:39:40;;;;;;;7.70;2.30;;;;;;;20.79;53.42;96782.31;10350760;28;20034;-31
2023/06/28 12:44:54;;;;;;;8.38;2.58;;;;;;;20.80;53.26;96790.81;10321773;28;20121;-30
2023/06/28 12:49:56;;;;;;;7.82;2.33;;;;;;;20.80;53.38;96783.19;10354856;28;20133;-30
2023/06/28 12:54:57;;;;;;;9.50;2.30;;;;;;;20.81;53.47;96778.06;10337146;28;20500;-30
2023/06/28 12:59:57;;;;;;;4.82;2.10;;;;;;;20.90;53.42;96780.56;10349367;28;20038;-30
2023/06/28 13:04:57;;;;;;;6.33;1.70;;;;;;;21.06;52.82;96771.09;10339144;28;20782;-30
2023/06/28 13:09:58;;;;;;;6.07;2.03;;;;;;;21.07;52.64;96776.16;10345767;28;20030;-31
2023/06/28 13:14:58;;;;;;;7.97;2.87;;;;;;;20.97;53.27;96778.81;10335538;28;20089;-30
2023/06/28 13:19:58;;;;;;;6.37;3.07;;;;;;;20.92;53.31;96775.47;10324450;28;20549;-30
2023/06/28 13:24:59;;;;;;;9.50;2.70;;;;;;;20.92;53.31;96778.00;10348060;28;20038;-30
2023/06/28 13:29:59;;;;;;;10.05;4.30;;;;;;;20.88;53.31;96761.91;10354713;28;20042;-30
2023/06/28 13:35:00;;;;;;;8.93;4.13;;;;;;;20.91;53.39;96755.97;10344915;28;20038;-30
2023/06/28 13:40:02;;;;;;;10.27;4.80;;;;;;;20.92;53.08;96753.41;10334861;28;20050;-30
2023/06/28 13:45:03;;;;;;;33.25;6.90;;;;;;;21.00;53.85;96754.19;10348232;28;20300;-30
2023/06/28 13:50:04;;;;;;;21.65;5.57;;;;;;;20.90;54.76;96752.56;10346051;28;20045;-31
2023/06/28 13:55:05;;;;;;;21.38;5.30;;;;;;;21.10;53.28;96755.78;10342341;28;20125;-30
2023/06/28 14:00:06;;;;;;;14.52;4.28;;;;;;;21.19;53.06;96753.13;10335125;28;20121;-30
2023/06/28 14:05:07;;;;;;;15.15;5.30;;;;;;;21.09;53.60;96741.38;10335148;28;20050;-30
2023/06/28 14:10:08;;;;;;;19.13;3.72;;;;;;;20.95;54.57;96742.31;10338366;28;20026;-30
2023/06/28 14:15:08;;;;;;;14.95;3.78;;;;;;;20.89;54.72;96748.31;10335816;28;20038;-30
2023/06/28 14:20:09;;;;;;;12.93;4.82;;;;;;;20.88;54.83;96750.91;10341848;28;20042;-29
2023/06/28 14:25:10;;;;;;;19.00;5.38;;;;;;;20.88;54.76;96743.28;10349186;28;20099;-30
2023/06/28 14:30:11;;;;;;;14.90;4.00;;;;;;;20.86;54.78;96743.28;10340893;28;20053;-30
2023/06/28 14:35:13;;;;;;;12.10;3.60;;;;;;;20.87;54.72;96744.97;10340564;28;20345;-30
2023/06/28 14:40:14;;;;;;;14.48;4.32;;;;;;;20.87;54.86;96739.03;10327691;28;20095;-33
2023/06/28 14:45:14;;;;;;;16.77;4.23;;;;;;;21.03;54.53;96741.41;10342317;28;20552;-29
2023/06/28 14:50:15;;;;;;;20.05;4.85;;;;;;;21.19;54.06;96742.09;10340960;28;20557;-30
2023/06/28 14:55:15;;;;;;;15.57;4.57;;;;;;;21.16;53.87;96742.13;10355056;28;20843;-30
2023/06/28 15:00:16;;;;;;;12.98;4.15;;;;;;;21.02;54.26;96734.63;10329018;28;20042;-30
2023/06/28 15:05:16;;;;;;;11.30;3.58;;;;;;;20.94;54.48;96730.47;10346851;28;20034;-30
2023/06/28 15:10:16;;;;;;;9.53;3.33;;;;;;;20.91;54.70;96728.81;10340882;28;20062;-30
2023/06/28 15:15:17;;;;;;;16.03;3.53;;;;;;;20.90;54.97;96724.56;10357468;28;20038;-30
2023/06/28 15:20:17;;;;;;;13.07;4.40;;;;;;;20.89;54.98;96722.88;10362885;28;20113;-30
2023/06/28 15:25:18;;;;;;;8.23;3.40;;;;;;;20.90;54.78;96719.47;10333780;28;20030;-30
2023/06/28 15:30:18;;;;;;;7.47;2.70;;;;;;;20.89;54.90;96712.69;10365583;28;20039;-30
2023/06/28 15:35:19;;;;;;;10.73;3.07;;;;;;;20.95;54.56;96712.66;10385573;28;20454;-30
2023/06/28 15:40:20;;;;;;;7.68;2.85;;;;;;;21.15;54.35;96715.81;10372303;28;20045;-30
2023/06/28 15:45:20;;;;;;;8.90;3.03;;;;;;;21.23;53.96;96713.22;10339986;28;20041;-30
2023/06/28 15:50:21;;;;;;;13.27;2.67;;;;;;;21.12;54.25;96708.22;10356038;28;20026;-30
2023/06/28 15:55:24;;;;;;;12.57;3.28;;;;;;;21.00;54.37;96708.38;10364552;28;20038;-30
2023/06/28 16:00:24;;;;;;;7.88;3.25;;;;;;;20.96;54.64;96706.69;10345389;28;20474;-30
2023/06/28 16:05:25;;;;;;;7.57;2.43;;;;;;;20.93;54.94;96704.19;10345979;28;20074;-30
2023/06/28 16:10:25;;;;;;;6.05;2.35;;;;;;;20.92;54.58;96699.97;10338252;28;20679;-32
2023/06/28 16:15:25;;;;;;;8.20;2.83;;;;;;;20.92;54.91;96702.50;10347686;28;20037;-30
2023/06/28 16:20:26;;;;;;;4.50;2.97;;;;;;;20.93;55.21;96699.09;10348762;28;20437;-31
2023/06/28 16:25:26;;;;;;;11.03;3.40;;;;;;;20.94;55.17;96703.31;10348674;28;20041;-31
2023/06/28 16:30:27;;;;;;;21.60;3.93;;;;;;;21.17;56.15;96698.84;10347824;28;20030;-30
2023/06/28 16:35:27;;;;;;;20.88;3.35;;;;;;;21.29;55.50;96698.69;10356105;28;20038;-30
2023/06/28 16:40:28;;;;;;;8.40;2.40;;;;;;;21.26;54.98;96693.66;10363724;28;20433;-29
2023/06/28 16:45:31;;;;;;;14.57;3.38;;;;;;;21.14;54.91;96698.03;10350171;28;20034;-29
2023/06/28 16:50:32;;;;;;;9.25;2.88;;;;;;;21.06;55.34;96699.81;10348079;28;20391;-32
2023/06/28 16:55:32;;;;;;;8.82;2.72;;;;;;;21.01;55.42;96687.13;10355902;28;20033;-30
2023/06/28 17:00:32;;;;;;;8.45;2.42;;;;;;;20.97;55.06;96690.56;10340004;28;20060;-29
2023/06/28 17:05:33;;;;;;;8.73;2.40;;;;;;;20.96;55.23;96709.25;10343326;28;20038;-30
2023/06/28 17:10:33;;;;;;;9.48;2.53;;;;;;;20.95;55.11;96706.69;10336535;28;20286;-30
2023/06/28 17:15:33;;;;;;;5.53;2.33;;;;;;;21.15;54.96;96689.53;10336475;28;20051;-30
2023/06/28 17:20:34;;;;;;;7.40;1.83;;;;;;;21.24;54.90;96687.72;10343555;28;20041;-30
2023/06/28 17:25:35;;;;;;;6.07;2.30;;;;;;;21.22;54.56;96696.25;10333754;28;20042;-30
2023/06/28 17:30:35;;;;;;;4.33;2.13;;;;;;;21.10;54.82;96696.38;10364490;28;20037;-30
2023/06/28 17:35:35;;;;;;;6.87;2.53;;;;;;;21.03;54.80;96700.69;10355309;28;20029;-30
2023/06/28 17:40:36;;;;;;;6.73;2.20;;;;;;;21.00;55.15;96695.63;10335669;28;20360;-31
2023/06/28 17:45:36;;;;;;;7.10;2.33;;;;;;;20.95;54.83;96696.50;10344326;28;20049;-30
2023/06/28 17:50:36;;;;;;;6.70;2.73;;;;;;;20.94;55.22;96705.88;10334618;28;20324;-30
2023/06/28 17:55:37;;;;;;;5.37;2.90;;;;;;;20.93;55.17;96704.19;10345268;28;20034;-30
2023/06/28 18:00:38;;;;;;;4.07;2.00;;;;;;;21.18;54.94;96704.75;10337764;28;20865;-30
2023/06/28 18:05:40;;;;;;;8.38;2.63;;;;;;;21.30;55.79;96700.38;10365461;28;20116;-29
2023/06/28 18:10:40;;;;;;;4.45;1.90;;;;;;;21.22;55.28;96699.63;10333391;28;20097;-30
2023/06/28 18:15:41;;;;;;;6.03;1.90;;;;;;;21.11;55.06;96706.53;10342209;28;20469;-30
2023/06/28 18:20:41;;;;;;;6.75;2.22;;;;;;;21.04;55.13;96704.91;10361434;28;20386;-30
2023/06/28 18:25:42;;;;;;;6.37;2.47;;;;;;;21.00;55.20;96698.19;10364664;28;20041;-30
2023/06/28 18:30:42;;;;;;;3.83;1.93;;;;;;;21.01;55.49;96702.41;10357904;28;20315;-30
2023/06/28 18:35:43;;;;;;;8.82;1.75;;;;;;;20.97;55.32;96700.75;10363516;28;20296;-30
2023/06/28 18:40:43;;;;;;;3.37;1.80;;;;;;;21.05;55.65;96698.97;10378285;28;20474;-30
2023/06/28 18:45:45;;;;;;;5.33;2.33;;;;;;;21.30;55.64;96695.28;10339059;28;20026;-30
2023/06/28 18:50:45;;;;;;;4.57;1.90;;;;;;;21.29;54.88;96697.88;10337922;28;20299;-30
2023/06/28 18:55:46;;;;;;;6.80;2.30;;;;;;;21.16;55.18;96694.63;10373400;28;20052;-30
2023/06/28 19:00:47;;;;;;;3.80;1.65;;;;;;;21.08;55.02;96691.31;10351712;28;20355;-30
2023/06/28 19:05:47;;;;;;;5.67;1.87;;;;;;;21.02;54.96;96691.38;10328366;28;20482;-32
2023/06/28 19:10:49;;;;;;;5.83;2.63;;;;;;;20.95;55.07;96692.28;10345970;28;20034;-31
2023/06/28 19:15:49;;;;;;;9.95;2.33;;;;;;;20.96;54.82;96703.31;10356507;28;20088;-30
2023/06/28 19:20:50;;;;;;;5.07;2.77;;;;;;;21.00;55.50;96710.91;10328420;28;20034;-32
2023/06/28 19:25:50;;;;;;;9.25;3.83;;;;;;;21.23;55.06;96718.31;10338252;28;20041;-32
2023/06/28 19:30:51;;;;;;;8.02;2.90;;;;;;;21.28;55.39;96717.38;10344556;28;20030;-30
2023/06/28 19:35:52;;;;;;;5.22;2.50;;;;;;;21.18;55.04;96718.34;10333435;28;20081;-30
2023/06/28 19:40:53;;;;;;;6.63;2.80;;;;;;;21.10;55.06;96727.78;10343435;28;20144;-30
2023/06/28 19:45:53;;;;;;;4.47;2.00;;;;;;;21.04;55.15;96732.91;10348253;28;20285;-30
2023/06/28 19:50:53;;;;;;;5.27;2.03;;;;;;;20.99;55.32;96727.00;10333615;28;20499;-30
2023/06/28 19:55:54;;;;;;;4.07;2.10;;;;;;;20.95;55.14;96738.09;10336066;28;20041;-32
2023/06/28 20:00:54;;;;;;;3.88;2.35;;;;;;;20.95;55.31;96733.00;10347103;28;20038;-30
2023/06/28 20:05:55;;;;;;;5.50;3.20;;;;;;;21.04;55.64;96732.91;10360077;28;20061;-31
2023/06/28 20:10:55;;;;;;;3.97;2.60;;;;;;;21.26;55.74;96733.53;10326861;28;20573;-30
2023/06/28 20:15:56;;;;;;;5.73;2.70;;;;;;;21.32;55.56;96741.94;10341985;28;20148;-30
2023/06/28 20:20:57;;;;;;;5.05;2.00;;;;;;;21.17;54.88;96742.13;10334757;28;20418;-30
2023/06/28 20:25:57;;;;;;;5.00;2.43;;;;;;;21.13;54.79;96737.91;10337801;28;20048;-30
2023/06/28 20:30:58;;;;;;;3.40;2.00;;;;;;;21.09;54.75;96741.38;10335323;28;20030;-30
2023/06/28 20:35:58;;;;;;;4.00;1.80;;;;;;;21.11;54.86;96743.88;10332418;28;20769;-31
2023/06/28 20:40:58;;;;;;;4.17;1.67;;;;;;;21.09;54.98;96749.00;10333676;28;20309;-31
2023/06/28 20:46:03;;;;;;;6.10;2.60;;;;;;;21.10;54.86;96747.28;10334191;28;20506;-30
2023/06/28 20:51:03;;;;;;;1.83;1.52;;;;;;;21.09;54.95;96759.19;10346143;28;20293;-30
2023/06/28 20:56:03;;;;;;;3.60;2.10;;;;;;;21.33;55.37;96753.84;10345522;28;20064;-30
2023/06/28 21:01:04;;;;;;;3.10;1.87;;;;;;;21.35;54.72;96754.66;10334603;28;20034;-30
2023/06/28 21:06:05;;;;;;;3.47;1.60;;;;;;;20.76;54.67;96756.06;10328848;28;20785;-30
2023/06/28 21:11:05;;;;;;;2.97;1.92;;;;;;;20.62;54.59;96753.63;10328671;28;20034;-30
2023/06/28 21:16:05;;;;;;;4.53;2.30;;;;;;;20.37;55.52;96764.00;10334013;28;20417;-30
2023/06/28 21:21:06;;;;;;;5.00;2.30;;;;;;;20.29;55.67;96759.81;10333682;28;20038;-30
2023/06/28 21:26:06;;;;;;;7.27;2.47;;;;;;;20.20;55.82;96763.28;10331033;28;20029;-30
2023/06/28 21:31:07;;;;;;;5.72;1.90;;;;;;;20.11;56.28;96767.56;10349633;28;20022;-29
2023/06/28 21:36:07;;;;;;;3.95;2.03;;;;;;;20.06;56.36;96756.56;10336324;28;20088;-30
2023/06/28 21:41:08;;;;;;;4.03;2.30;;;;;;;20.07;56.03;96753.16;10329831;28;20030;-30
2023/06/28 21:46:08;;;;;;;8.87;2.50;;;;;;;20.05;56.22;96752.31;10346779;28;20438;-30
2023/06/28 21:51:08;;;;;;;5.18;2.05;;;;;;;19.96;56.36;96754.88;10335490;28;20398;-30
2023/06/28 21:56:09;;;;;;;5.10;2.37;;;;;;;19.93;56.42;96765.06;10343732;28;20034;-30
2023/06/28 22:01:09;;;;;;;6.57;2.30;;;;;;;19.88;56.57;96754.06;10335876;28;20065;-30
2023/06/28 22:06:10;;;;;;;5.10;2.63;;;;;;;19.84;56.59;96740.53;10337691;28;20041;-30
2023/06/28 22:11:10;;;;;;;3.05;2.17;;;;;;;19.77;56.79;96751.56;10342207;28;20025;-31
2023/06/28 22:16:13;;;;;;;2.77;2.07;;;;;;;19.71;56.96;96746.56;10331434;28;20045;-30
2023/06/28 22:21:14;;;;;;;3.60;2.08;;;;;;;19.70;56.89;96744.00;10334939;28;20387;-30
2023/06/28 22:26:17;;;;;;;4.53;2.58;;;;;;;19.69;56.89;96747.41;10334823;28;20038;-30
2023/06/28 22:31:17;;;;;;;3.95;2.30;;;;;;;19.66;56.82;96744.88;10334838;28;20408;-30
2023/06/28 22:36:18;;;;;;;6.22;2.38;;;;;;;19.71;56.68;96741.47;10330653;28;20030;-30
2023/06/28 22:41:18;;;;;;;8.05;2.47;;;;;;;19.65;56.74;96735.53;10330427;28;20049;-30
2023/06/28 22:46:19;;;;;;;3.88;2.40;;;;;;;19.66;56.80;96732.19;10334589;28;20110;-29
2023/06/28 22:51:19;;;;;;;7.93;2.78;;;;;;;19.62;57.00;96735.56;10326187;28;20046;-30
2023/06/28 22:56:19;;;;;;;4.73;2.00;;;;;;;19.52;57.38;96731.38;10334510;28;20513;-30
2023/06/28 23:01:20;;;;;;;4.60;3.07;;;;;;;19.47;57.07;96735.63;10334209;28;20308;-30
2023/06/28 23:06:20;;;;;;;5.80;2.30;;;;;;;19.44;57.24;96739.00;10345013;28;20280;-30
2023/06/28 23:11:24;;;;;;;3.78;2.30;;;;;;;19.37;57.26;96726.34;10337888;28;20270;-29
2023/06/28 23:16:24;;;;;;;5.60;2.38;;;;;;;19.42;57.50;96732.28;10333791;28;20105;-30